createdAt,value
2022-11-14T00:00:45.632Z,73400.81
2022-11-14T00:01:36.714Z,73404.81
2022-11-14T00:02:30.864Z,73400.81
2022-11-14T00:03:21.897Z,73402.81
2022-11-14T00:04:15.760Z,73400.81
2022-11-14T00:05:08.452Z,73400.81
2022-11-14T00:06:01.748Z,73396.84
2022-11-14T00:06:52.536Z,73404.81
2022-11-14T00:07:46.107Z,73394.84
2022-11-14T00:08:37.116Z,73400.81
2022-11-14T00:09:33.608Z,73396.84
2022-11-14T00:10:25.060Z,73398.81
2022-11-14T00:11:18.727Z,73396.84
2022-11-14T00:12:09.467Z,73400.81
2022-11-14T00:13:03.001Z,73394.84
2022-11-14T00:13:54.085Z,73396.84
2022-11-14T00:14:47.338Z,73392.84
2022-11-14T00:15:38.002Z,73396.84
2022-11-14T00:16:31.509Z,73400.81
2022-11-14T00:17:22.364Z,73394.84
2022-11-14T00:18:16.047Z,73398.81
2022-11-14T00:19:07.017Z,73392.84
2022-11-14T00:20:00.192Z,73398.81
2022-11-14T00:20:52.071Z,73404.81
2022-11-14T00:21:46.656Z,73410.81
2022-11-14T00:22:37.525Z,73410.81
2022-11-14T00:23:30.960Z,73406.81
2022-11-14T00:24:21.793Z,73412.81
2022-11-14T00:25:18.018Z,73416.78
2022-11-14T00:26:08.829Z,73410.81
2022-11-14T00:27:02.321Z,73400.81
2022-11-14T00:27:53.049Z,73400.81
2022-11-14T00:28:46.640Z,73400.81
2022-11-14T00:29:37.312Z,73400.81
2022-11-14T00:30:30.883Z,73404.81
2022-11-14T00:31:21.695Z,73404.81
2022-11-14T00:32:15.297Z,73408.81
2022-11-14T00:33:06.212Z,73412.81
2022-11-14T00:33:59.537Z,73404.81
2022-11-14T00:34:50.303Z,73416.78
2022-11-14T00:35:43.532Z,73412.81
2022-11-14T00:36:34.376Z,73412.81
2022-11-14T00:37:27.744Z,73416.78
2022-11-14T00:38:18.713Z,73424.78
2022-11-14T00:39:14.728Z,73406.81
2022-11-14T00:40:06.660Z,73418.78
2022-11-14T00:41:02.761Z,73418.78
2022-11-14T00:41:53.511Z,73412.81
2022-11-14T00:42:47.869Z,73404.81
2022-11-14T00:43:38.395Z,73400.81
2022-11-14T00:44:31.847Z,73402.81
2022-11-14T00:45:23.050Z,73404.81
2022-11-14T00:46:16.990Z,73404.81
2022-11-14T00:47:07.867Z,73412.81
2022-11-14T00:48:01.825Z,73408.81
2022-11-14T00:48:52.438Z,73414.81
2022-11-14T00:49:45.684Z,73412.81
2022-11-14T00:50:38.115Z,73410.81
2022-11-14T00:51:31.485Z,73404.81
2022-11-14T00:52:22.084Z,73400.81
2022-11-14T00:53:16.025Z,73396.84
2022-11-14T00:54:06.659Z,73396.84
2022-11-14T00:54:57.770Z,73400.81
2022-11-14T00:55:51.314Z,73404.81
2022-11-14T00:56:44.580Z,73400.81
2022-11-14T00:57:38.117Z,73404.81
2022-11-14T00:58:29.133Z,73400.81
2022-11-14T00:59:22.879Z,73410.81
2022-11-14T01:00:14.825Z,73404.81
2022-11-14T01:01:09.391Z,73400.81
2022-11-14T01:02:00.289Z,73400.81
2022-11-14T01:02:56.951Z,73404.81
2022-11-14T01:03:48.884Z,73396.84
2022-11-14T01:04:42.598Z,73402.81
2022-11-14T01:05:33.476Z,73400.81
2022-11-14T01:06:27.423Z,73400.81
2022-11-14T01:07:18.359Z,73400.81
2022-11-14T01:08:11.580Z,73398.81
2022-11-14T01:09:02.340Z,73394.84
2022-11-14T01:09:55.996Z,73398.81
2022-11-14T01:10:49.475Z,73406.81
2022-11-14T01:11:42.978Z,73398.81
2022-11-14T01:12:36.691Z,73392.84
2022-11-14T01:13:30.476Z,73404.81
2022-11-14T01:14:21.040Z,73404.81
2022-11-14T01:15:14.436Z,73404.81
2022-11-14T01:16:06.792Z,73402.81
2022-11-14T01:17:00.000Z,73402.81
2022-11-14T01:17:50.554Z,73404.81
2022-11-14T01:18:41.887Z,73404.81
2022-11-14T01:19:35.695Z,73412.81
2022-11-14T01:20:26.252Z,73394.84
2022-11-14T01:21:19.971Z,73404.81
2022-11-14T01:22:10.581Z,73396.84
2022-11-14T01:23:04.115Z,73396.84
2022-11-14T01:23:55.013Z,73398.81
2022-11-14T01:24:48.256Z,73390.84
2022-11-14T01:25:40.368Z,73400.81
2022-11-14T01:26:33.924Z,73388.84
2022-11-14T01:27:24.851Z,73384.84
2022-11-14T01:28:22.539Z,73384.84
2022-11-14T01:29:13.313Z,73384.84
2022-11-14T01:30:07.301Z,73380.88
2022-11-14T01:30:58.000Z,73380.88
2022-11-14T01:31:51.954Z,73380.88
2022-11-14T01:32:42.900Z,73380.88
2022-11-14T01:33:36.268Z,73376.88
2022-11-14T01:34:26.941Z,73380.88
2022-11-14T01:35:20.469Z,73370.88
2022-11-14T01:36:11.617Z,73368.88
2022-11-14T01:37:05.274Z,73364.88
2022-11-14T01:37:55.876Z,73370.88
2022-11-14T01:38:46.648Z,73364.88
2022-11-14T01:39:40.048Z,73356.91
2022-11-14T01:40:31.317Z,73364.88
2022-11-14T01:41:25.422Z,73360.91
2022-11-14T01:42:17.593Z,73352.91
2022-11-14T01:43:32.081Z,73352.91
2022-11-14T01:44:57.389Z,73352.91
2022-11-14T01:45:52.637Z,73350.91
2022-11-14T01:46:49.628Z,73352.91
2022-11-14T01:47:40.396Z,73350.91
2022-11-14T01:48:38.431Z,73352.91
2022-11-14T01:49:37.566Z,73348.91
2022-11-14T01:50:28.793Z,73352.91
2022-11-14T01:51:27.449Z,73368.88
2022-11-14T01:52:20.120Z,73364.88
2022-11-14T01:53:13.384Z,73368.88
2022-11-14T01:54:06.157Z,73368.88
2022-11-14T01:55:02.209Z,73360.91
2022-11-14T01:55:54.472Z,73364.88
2022-11-14T01:56:50.995Z,73366.88
2022-11-14T01:57:45.412Z,73364.88
2022-11-14T01:58:44.979Z,73366.88
2022-11-14T01:59:38.123Z,73364.88
2022-11-14T02:00:31.397Z,73364.88
2022-11-14T02:01:23.305Z,73356.91
2022-11-14T02:02:19.820Z,73362.91
2022-11-14T02:03:12.425Z,73358.91
2022-11-14T02:04:10.617Z,73366.88
2022-11-14T02:05:08.328Z,73372.88
2022-11-14T02:06:01.752Z,73376.88
2022-11-14T02:06:56.169Z,73380.88
2022-11-14T02:07:49.924Z,73380.88
2022-11-14T02:08:41.387Z,73396.84
2022-11-14T02:09:38.558Z,73400.81
2022-11-14T02:10:29.628Z,73400.81
2022-11-14T02:11:23.415Z,73404.81
2022-11-14T02:12:16.213Z,73404.81
2022-11-14T02:13:09.971Z,73408.81
2022-11-14T02:14:03.315Z,73406.81
2022-11-14T02:14:59.287Z,73412.81
2022-11-14T02:15:50.608Z,73402.81
2022-11-14T02:17:00.833Z,73404.81
2022-11-14T02:17:55.922Z,73406.81
2022-11-14T02:18:49.373Z,73406.81
2022-11-14T02:19:44.951Z,73412.81
2022-11-14T02:20:43.900Z,73406.81
2022-11-14T02:21:34.704Z,73408.81
2022-11-14T02:22:28.047Z,73408.81
2022-11-14T02:23:25.705Z,73412.81
2022-11-14T02:24:19.146Z,73418.78
2022-11-14T02:25:11.309Z,73420.78
2022-11-14T02:26:04.748Z,73414.81
2022-11-14T02:26:55.479Z,73418.78
2022-11-14T02:27:48.830Z,73416.78
2022-11-14T02:28:39.587Z,73406.81
2022-11-14T02:29:35.070Z,73406.81
2022-11-14T02:30:26.075Z,73414.81
2022-11-14T02:31:19.693Z,73410.81
2022-11-14T02:32:11.145Z,73412.81
2022-11-14T02:33:12.024Z,73412.81
2022-11-14T02:34:02.871Z,73396.84
2022-11-14T02:34:56.256Z,73400.81
2022-11-14T02:35:49.560Z,73402.81
2022-11-14T02:36:43.292Z,73400.81
2022-11-14T02:37:34.004Z,73392.84
2022-11-14T02:38:28.239Z,73388.84
2022-11-14T02:39:19.469Z,73376.88
2022-11-14T02:40:14.371Z,73372.88
2022-11-14T02:41:05.313Z,73378.88
2022-11-14T02:41:59.069Z,73374.88
2022-11-14T02:42:49.967Z,73384.84
2022-11-14T02:43:43.525Z,73388.84
2022-11-14T02:44:34.103Z,73390.84
2022-11-14T02:45:28.220Z,73386.84
2022-11-14T02:46:19.121Z,73392.84
2022-11-14T02:47:12.484Z,73388.84
2022-11-14T02:48:03.852Z,73392.84
2022-11-14T02:48:57.083Z,73394.84
2022-11-14T02:49:47.931Z,73392.84
2022-11-14T02:50:41.629Z,73392.84
2022-11-14T02:51:35.085Z,73392.84
2022-11-14T02:52:28.288Z,73388.84
2022-11-14T02:53:19.001Z,73398.81
2022-11-14T02:54:12.444Z,73392.84
2022-11-14T02:55:03.105Z,73396.84
2022-11-14T02:55:56.799Z,73396.84
2022-11-14T02:56:47.579Z,73396.84
2022-11-14T02:57:40.902Z,73404.81
2022-11-14T02:58:31.860Z,73398.81
2022-11-14T02:59:25.687Z,73404.81
2022-11-14T03:00:18.159Z,73400.81
2022-11-14T03:01:20.725Z,73406.81
2022-11-14T03:02:12.209Z,73396.84
2022-11-14T03:03:05.543Z,73408.81
2022-11-14T03:03:56.576Z,73416.78
2022-11-14T03:04:49.932Z,73406.81
2022-11-14T03:05:40.812Z,73406.81
2022-11-14T03:06:37.072Z,73410.81
2022-11-14T03:07:28.178Z,73416.78
2022-11-14T03:08:21.559Z,73416.78
2022-11-14T03:09:12.668Z,73412.81
2022-11-14T03:10:06.476Z,73406.81
2022-11-14T03:11:03.613Z,73414.81
2022-11-14T03:11:56.960Z,73406.81
2022-11-14T03:12:47.897Z,73406.81
2022-11-14T03:13:41.162Z,73400.81
2022-11-14T03:14:31.880Z,73396.84
2022-11-14T03:15:25.599Z,73396.84
2022-11-14T03:16:16.160Z,73392.84
2022-11-14T03:17:09.758Z,73392.84
2022-11-14T03:18:00.531Z,73392.84
2022-11-14T03:18:53.933Z,73392.84
2022-11-14T03:19:44.721Z,73392.84
2022-11-14T03:20:38.591Z,73388.84
2022-11-14T03:21:29.709Z,73388.84
2022-11-14T03:22:25.940Z,73384.84
2022-11-14T03:23:16.508Z,73384.84
2022-11-14T03:24:11.265Z,73384.84
2022-11-14T03:25:02.310Z,73388.84
2022-11-14T03:25:55.945Z,73386.84
2022-11-14T03:26:47.159Z,73390.84
2022-11-14T03:27:40.449Z,73388.84
2022-11-14T03:28:31.546Z,73384.84
2022-11-14T03:29:25.411Z,73384.84
2022-11-14T03:30:16.566Z,73382.84
2022-11-14T03:31:10.088Z,73368.88
2022-11-14T03:32:00.889Z,73330.97
2022-11-14T03:32:54.056Z,73305.00
2022-11-14T03:33:44.845Z,73277.06
2022-11-14T03:34:38.461Z,73247.13
2022-11-14T03:35:29.345Z,73227.16
2022-11-14T03:36:22.755Z,73217.16
2022-11-14T03:37:13.853Z,73197.22
2022-11-14T03:38:09.868Z,73187.22
2022-11-14T03:39:00.540Z,73181.25
2022-11-14T03:39:54.070Z,73165.28
2022-11-14T03:40:45.014Z,73149.31
2022-11-14T03:41:38.569Z,73141.31
2022-11-14T03:42:29.724Z,73133.34
2022-11-14T03:43:24.293Z,73127.34
2022-11-14T03:44:15.225Z,73117.38
2022-11-14T03:45:09.889Z,73121.34
2022-11-14T03:46:00.707Z,73111.38
2022-11-14T03:46:54.924Z,73111.38
2022-11-14T03:47:45.668Z,73105.38
2022-11-14T03:48:39.191Z,73101.41
2022-11-14T03:49:29.764Z,73103.38
2022-11-14T03:50:23.241Z,73097.41
2022-11-14T03:51:14.229Z,73101.41
2022-11-14T03:52:07.865Z,73103.38
2022-11-14T03:52:58.785Z,73105.38
2022-11-14T03:53:54.719Z,73107.38
2022-11-14T03:54:45.648Z,73101.41
2022-11-14T03:55:39.048Z,73097.41
2022-11-14T03:56:29.773Z,73101.41
2022-11-14T03:57:23.275Z,73101.41
2022-11-14T03:58:14.393Z,73105.38
2022-11-14T03:59:07.729Z,73105.38
2022-11-14T03:59:58.558Z,73115.38
2022-11-14T04:00:51.892Z,73113.38
2022-11-14T04:01:42.712Z,73119.34
2022-11-14T04:02:36.368Z,73125.34
2022-11-14T04:03:27.519Z,73129.34
2022-11-14T04:04:21.084Z,73125.34
2022-11-14T04:05:11.947Z,73125.34
2022-11-14T04:06:05.242Z,73129.34
2022-11-14T04:06:56.005Z,73125.34
2022-11-14T04:07:49.677Z,73123.34
2022-11-14T04:08:40.688Z,73121.34
2022-11-14T04:09:36.855Z,73117.38
2022-11-14T04:10:27.414Z,73113.38
2022-11-14T04:11:21.443Z,73117.38
2022-11-14T04:12:15.741Z,73113.38
2022-11-14T04:13:10.001Z,73109.38
2022-11-14T04:14:01.237Z,73105.38
2022-11-14T04:14:57.576Z,73105.38
2022-11-14T04:15:55.030Z,73105.38
2022-11-14T04:16:48.478Z,73109.38
2022-11-14T04:17:40.065Z,73105.38
2022-11-14T04:18:33.739Z,73113.38
2022-11-14T04:19:24.914Z,73113.38
2022-11-14T04:20:19.012Z,73107.38
2022-11-14T04:21:10.056Z,73113.38
2022-11-14T04:22:03.341Z,73113.38
2022-11-14T04:22:54.297Z,73117.38
2022-11-14T04:23:47.861Z,73117.38
2022-11-14T04:24:41.479Z,73117.38
2022-11-14T04:25:34.922Z,73117.38
2022-11-14T04:26:25.865Z,73125.34
2022-11-14T04:27:19.434Z,73125.34
2022-11-14T04:28:10.502Z,73127.34
2022-11-14T04:29:04.384Z,73133.34
2022-11-14T04:29:55.280Z,73131.34
2022-11-14T04:30:49.042Z,73135.31
2022-11-14T04:31:39.972Z,73133.34
2022-11-14T04:32:33.529Z,73127.34
2022-11-14T04:33:24.381Z,73125.34
2022-11-14T04:34:17.943Z,73125.34
2022-11-14T04:35:09.652Z,73125.34
2022-11-14T04:36:03.076Z,73123.34
2022-11-14T04:36:53.961Z,73125.34
2022-11-14T04:37:47.363Z,73127.34
2022-11-14T04:38:39.478Z,73119.34
2022-11-14T04:39:33.139Z,73121.34
2022-11-14T04:40:26.282Z,73121.34
2022-11-14T04:41:19.845Z,73113.38
2022-11-14T04:42:10.433Z,73107.38
2022-11-14T04:43:03.774Z,73113.38
2022-11-14T04:43:55.043Z,73109.38
2022-11-14T04:44:48.207Z,73109.38
2022-11-14T04:45:39.277Z,73101.41
2022-11-14T04:46:32.657Z,73101.41
2022-11-14T04:47:23.522Z,73109.38
2022-11-14T04:48:17.064Z,73101.41
2022-11-14T04:49:08.107Z,73107.38
2022-11-14T04:50:01.451Z,73111.38
2022-11-14T04:50:52.434Z,73105.38
2022-11-14T04:51:46.233Z,73107.38
2022-11-14T04:52:37.295Z,73105.38
2022-11-14T04:53:30.792Z,73101.41
2022-11-14T04:54:21.464Z,73101.41
2022-11-14T04:55:14.891Z,73105.38
2022-11-14T04:56:08.587Z,73117.38
2022-11-14T04:57:01.844Z,73113.38
2022-11-14T04:57:55.119Z,73105.38
2022-11-14T04:58:48.737Z,73099.41
2022-11-14T04:59:39.532Z,73097.41
2022-11-14T05:00:32.787Z,73097.41
2022-11-14T05:01:23.927Z,73093.41
2022-11-14T05:02:17.308Z,73095.41
2022-11-14T05:03:09.145Z,73095.41
2022-11-14T05:04:02.474Z,73103.38
2022-11-14T05:04:53.663Z,73101.41
2022-11-14T05:05:47.120Z,73105.38
2022-11-14T05:06:37.968Z,73105.38
2022-11-14T05:07:31.684Z,73105.38
2022-11-14T05:08:22.473Z,73109.38
2022-11-14T05:09:16.024Z,73109.38
2022-11-14T05:10:08.852Z,73105.38
2022-11-14T05:11:02.854Z,73101.41
2022-11-14T05:11:56.005Z,73113.38
2022-11-14T05:12:49.535Z,73105.38
2022-11-14T05:13:40.592Z,73109.38
2022-11-14T05:14:34.532Z,73105.38
2022-11-14T05:15:25.519Z,73107.38
2022-11-14T05:16:19.041Z,73117.38
2022-11-14T05:17:09.815Z,73117.38
2022-11-14T05:18:03.202Z,73113.38
2022-11-14T05:18:54.189Z,73119.34
2022-11-14T05:19:47.281Z,73109.38
2022-11-14T05:20:38.548Z,73113.38
2022-11-14T05:21:31.729Z,73109.38
2022-11-14T05:22:22.591Z,73105.38
2022-11-14T05:23:21.722Z,73097.41
2022-11-14T05:24:12.611Z,73095.41
2022-11-14T05:25:06.345Z,73099.41
2022-11-14T05:26:01.069Z,73105.38
2022-11-14T05:26:55.190Z,73117.38
2022-11-14T05:27:48.580Z,73123.34
2022-11-14T05:28:41.869Z,73121.34
2022-11-14T05:29:32.864Z,73115.38
2022-11-14T05:30:26.388Z,73113.38
2022-11-14T05:31:18.185Z,73113.38
2022-11-14T05:32:16.120Z,73113.38
2022-11-14T05:33:07.556Z,73113.38
2022-11-14T05:34:01.045Z,73117.38
2022-11-14T05:34:51.708Z,73121.34
2022-11-14T05:35:45.091Z,73125.34
2022-11-14T05:36:35.938Z,73129.34
2022-11-14T05:37:29.443Z,73127.34
2022-11-14T05:38:20.133Z,73129.34
2022-11-14T05:39:13.537Z,73125.34
2022-11-14T05:40:06.035Z,73121.34
2022-11-14T05:40:59.323Z,73119.34
2022-11-14T05:41:50.124Z,73121.34
2022-11-14T05:42:43.940Z,73109.38
2022-11-14T05:43:37.387Z,73123.34
2022-11-14T05:44:30.856Z,73117.38
2022-11-14T05:45:21.944Z,73113.38
2022-11-14T05:46:16.921Z,73121.34
2022-11-14T05:47:08.082Z,73117.38
2022-11-14T05:48:01.573Z,73113.38
2022-11-14T05:48:52.324Z,73117.38
2022-11-14T05:49:45.918Z,73117.38
2022-11-14T05:50:37.127Z,73121.34
2022-11-14T05:51:30.233Z,73125.34
2022-11-14T05:52:21.113Z,73121.34
2022-11-14T05:53:14.684Z,73129.34
2022-11-14T05:54:05.882Z,73121.34
2022-11-14T05:54:59.500Z,73129.34
2022-11-14T05:55:50.481Z,73123.34
2022-11-14T05:56:43.962Z,73125.34
2022-11-14T05:57:35.919Z,73123.34
2022-11-14T05:58:29.692Z,73123.34
2022-11-14T05:59:22.956Z,73123.34
2022-11-14T06:00:17.411Z,73121.34
2022-11-14T06:01:09.923Z,73133.34
2022-11-14T06:02:03.878Z,73157.28
2022-11-14T06:02:55.262Z,73173.25
2022-11-14T06:03:50.560Z,73197.22
2022-11-14T06:04:41.460Z,73221.16
2022-11-14T06:05:39.473Z,73239.13
2022-11-14T06:06:30.156Z,73245.13
2022-11-14T06:07:25.968Z,73261.09
2022-11-14T06:08:16.977Z,73281.06
2022-11-14T06:09:11.109Z,73293.03
2022-11-14T06:10:01.905Z,73303.00
2022-11-14T06:10:56.446Z,73320.97
2022-11-14T06:11:47.409Z,73328.97
2022-11-14T06:12:40.945Z,73334.94
2022-11-14T06:13:32.197Z,73336.94
2022-11-14T06:14:31.699Z,73344.94
2022-11-14T06:15:22.542Z,73350.91
2022-11-14T06:16:18.781Z,73340.94
2022-11-14T06:17:09.868Z,73336.94
2022-11-14T06:18:03.156Z,73350.91
2022-11-14T06:18:54.273Z,73348.91
2022-11-14T06:19:51.126Z,73352.91
2022-11-14T06:20:41.783Z,73352.91
2022-11-14T06:21:35.802Z,73354.91
2022-11-14T06:22:26.843Z,73356.91
2022-11-14T06:23:24.906Z,73364.88
2022-11-14T06:24:17.760Z,73368.88
2022-11-14T06:25:12.367Z,73372.88
2022-11-14T06:26:04.870Z,73376.88
2022-11-14T06:26:58.236Z,73372.88
2022-11-14T06:27:52.651Z,73380.88
2022-11-14T06:28:46.089Z,73382.84
2022-11-14T06:29:44.632Z,73384.84
2022-11-14T06:30:39.324Z,73388.84
2022-11-14T06:31:33.580Z,73396.84
2022-11-14T06:32:27.079Z,73396.84
2022-11-14T06:33:19.544Z,73394.84
2022-11-14T06:34:14.427Z,73404.81
2022-11-14T06:35:09.616Z,73400.81
2022-11-14T06:36:03.852Z,73392.84
2022-11-14T06:36:59.844Z,73396.84
2022-11-14T06:37:50.763Z,73404.81
2022-11-14T06:38:45.751Z,73404.81
2022-11-14T06:39:37.724Z,73412.81
2022-11-14T06:40:33.228Z,73400.81
2022-11-14T06:41:24.079Z,73398.81
2022-11-14T06:42:19.247Z,73402.81
2022-11-14T06:43:13.080Z,73388.84
2022-11-14T06:44:15.150Z,73368.88
2022-11-14T06:45:11.272Z,73348.91
2022-11-14T06:46:04.793Z,73336.94
2022-11-14T06:46:56.560Z,73336.94
2022-11-14T06:47:50.590Z,73328.97
2022-11-14T06:48:42.050Z,73316.97
2022-11-14T06:49:47.407Z,73305.00
2022-11-14T06:50:38.179Z,73293.03
2022-11-14T06:51:31.922Z,73277.06
2022-11-14T06:52:23.232Z,73277.06
2022-11-14T06:53:16.638Z,73281.06
2022-11-14T06:54:07.325Z,73285.03
2022-11-14T06:55:00.932Z,73293.03
2022-11-14T06:55:55.947Z,73301.00
2022-11-14T06:56:49.419Z,73307.00
2022-11-14T06:57:40.117Z,73305.00
2022-11-14T06:58:34.963Z,73313.00
2022-11-14T06:59:25.553Z,73328.97
2022-11-14T07:00:22.165Z,73338.94
2022-11-14T07:01:14.729Z,73338.94
2022-11-14T07:02:08.160Z,73344.94
2022-11-14T07:02:58.847Z,73348.91
2022-11-14T07:03:52.925Z,73360.91
2022-11-14T07:04:43.744Z,73356.91
2022-11-14T07:05:37.792Z,73360.91
2022-11-14T07:06:33.391Z,73372.88
2022-11-14T07:07:24.907Z,73370.88
2022-11-14T07:08:21.201Z,73368.88
2022-11-14T07:09:12.247Z,73378.88
2022-11-14T07:10:05.769Z,73376.88
2022-11-14T07:11:04.513Z,73382.84
2022-11-14T07:11:55.194Z,73380.88
2022-11-14T07:12:48.424Z,73386.84
2022-11-14T07:13:42.098Z,73388.84
2022-11-14T07:14:35.281Z,73388.84
2022-11-14T07:15:28.943Z,73388.84
2022-11-14T07:16:22.339Z,73394.84
2022-11-14T07:17:13.265Z,73390.84
2022-11-14T07:18:06.819Z,73392.84
2022-11-14T07:18:58.360Z,73392.84
2022-11-14T07:19:51.848Z,73396.84
2022-11-14T07:20:42.286Z,73400.81
2022-11-14T07:21:37.581Z,73400.81
2022-11-14T07:22:28.544Z,73396.84
2022-11-14T07:23:23.124Z,73400.81
2022-11-14T07:24:16.607Z,73404.81
2022-11-14T07:25:08.811Z,73412.81
2022-11-14T07:26:04.716Z,73408.81
2022-11-14T07:26:55.355Z,73416.78
2022-11-14T07:27:48.757Z,73416.78
2022-11-14T07:28:41.291Z,73412.81
2022-11-14T07:29:34.805Z,73416.78
2022-11-14T07:30:25.636Z,73418.78
2022-11-14T07:31:23.369Z,73416.78
2022-11-14T07:32:14.465Z,73412.81
2022-11-14T07:33:07.787Z,73412.81
2022-11-14T07:33:58.469Z,73416.78
2022-11-14T07:34:51.820Z,73424.78
2022-11-14T07:35:45.911Z,73416.78
2022-11-14T07:36:36.709Z,73420.78
2022-11-14T07:37:30.200Z,73420.78
2022-11-14T07:38:21.226Z,73424.78
2022-11-14T07:39:14.988Z,73424.78
2022-11-14T07:40:07.151Z,73420.78
2022-11-14T07:41:01.867Z,73424.78
2022-11-14T07:41:52.509Z,73430.78
2022-11-14T07:42:46.066Z,73430.78
2022-11-14T07:43:36.968Z,73426.78
2022-11-14T07:44:30.402Z,73432.75
2022-11-14T07:45:21.358Z,73432.75
2022-11-14T07:46:16.405Z,73424.78
2022-11-14T07:47:09.751Z,73432.75
2022-11-14T07:48:04.693Z,73428.78
2022-11-14T07:48:55.567Z,73428.78
2022-11-14T07:49:48.828Z,73432.75
2022-11-14T07:50:39.875Z,73430.78
2022-11-14T07:51:33.627Z,73424.78
2022-11-14T07:52:24.601Z,73424.78
2022-11-14T07:53:18.388Z,73420.78
2022-11-14T07:54:13.781Z,73430.78
2022-11-14T07:55:05.154Z,73432.75
2022-11-14T07:55:58.716Z,73436.75
2022-11-14T07:56:49.600Z,73436.75
2022-11-14T07:57:47.908Z,73420.78
2022-11-14T07:58:41.216Z,73420.78
2022-11-14T07:59:34.591Z,73428.78
2022-11-14T08:00:28.519Z,73428.78
2022-11-14T08:01:22.277Z,73436.75
2022-11-14T08:02:18.732Z,73426.78
2022-11-14T08:03:09.880Z,73420.78
2022-11-14T08:04:03.363Z,73416.78
2022-11-14T08:04:54.024Z,73414.81
2022-11-14T08:05:47.291Z,73418.78
2022-11-14T08:06:40.733Z,73416.78
2022-11-14T08:07:31.991Z,73410.81
2022-11-14T08:08:25.372Z,73412.81
2022-11-14T08:09:16.152Z,73406.81
2022-11-14T08:10:11.829Z,73410.81
2022-11-14T08:11:05.263Z,73412.81
2022-11-14T08:11:56.776Z,73404.81
2022-11-14T08:13:04.639Z,73412.81
2022-11-14T08:14:03.657Z,73412.81
2022-11-14T08:14:57.176Z,73404.81
2022-11-14T08:15:48.064Z,73408.81
2022-11-14T08:16:41.563Z,73400.81
2022-11-14T08:17:35.003Z,73400.81
2022-11-14T08:18:29.551Z,73404.81
2022-11-14T08:19:20.873Z,73404.81
2022-11-14T08:20:14.730Z,73398.81
2022-11-14T08:21:05.951Z,73400.81
2022-11-14T08:21:59.469Z,73400.81
2022-11-14T08:22:50.702Z,73402.81
2022-11-14T08:23:45.424Z,73398.81
2022-11-14T08:24:36.286Z,73396.84
2022-11-14T08:25:29.820Z,73404.81
2022-11-14T08:26:20.798Z,73396.84
2022-11-14T08:27:14.095Z,73396.84
2022-11-14T08:28:05.149Z,73390.84
2022-11-14T08:28:58.450Z,73394.84
2022-11-14T08:29:51.246Z,73396.84
2022-11-14T08:30:44.545Z,73396.84
2022-11-14T08:31:35.188Z,73394.84
2022-11-14T08:32:28.735Z,73398.81
2022-11-14T08:33:22.226Z,73400.81
2022-11-14T08:34:15.954Z,73398.81
2022-11-14T08:35:07.708Z,73400.81
2022-11-14T08:36:04.069Z,73392.84
2022-11-14T08:36:56.832Z,73392.84
2022-11-14T08:37:50.072Z,73388.84
2022-11-14T08:38:40.777Z,73394.84
2022-11-14T08:39:34.073Z,73400.81
2022-11-14T08:40:25.013Z,73400.81
2022-11-14T08:41:18.425Z,73400.81
2022-11-14T08:42:09.044Z,73392.84
2022-11-14T08:43:03.897Z,73404.81
2022-11-14T08:43:54.676Z,73396.84
2022-11-14T08:44:52.062Z,73388.84
2022-11-14T08:45:43.310Z,73396.84
2022-11-14T08:46:36.762Z,73394.84
2022-11-14T08:47:27.628Z,73388.84
2022-11-14T08:48:21.177Z,73388.84
2022-11-14T08:49:14.358Z,73384.84
2022-11-14T08:50:08.644Z,73392.84
2022-11-14T08:51:03.236Z,73388.84
2022-11-14T08:51:56.638Z,73388.84
2022-11-14T08:52:50.358Z,73388.84
2022-11-14T08:53:43.979Z,73392.84
2022-11-14T08:54:34.646Z,73392.84
2022-11-14T08:55:28.196Z,73390.84
2022-11-14T08:56:19.159Z,73390.84
2022-11-14T08:57:15.311Z,73392.84
2022-11-14T08:58:08.883Z,73400.81
2022-11-14T08:58:59.870Z,73398.81
2022-11-14T08:59:53.592Z,73396.84
2022-11-14T09:00:44.229Z,73404.81
2022-11-14T09:01:37.582Z,73402.81
2022-11-14T09:02:28.836Z,73400.81
2022-11-14T09:03:22.295Z,73404.81
2022-11-14T09:04:15.899Z,73404.81
2022-11-14T09:05:10.571Z,73406.81
2022-11-14T09:06:01.925Z,73408.81
2022-11-14T09:06:55.788Z,73406.81
2022-11-14T09:07:46.868Z,73406.81
2022-11-14T09:08:40.468Z,73408.81
2022-11-14T09:09:31.822Z,73404.81
2022-11-14T09:10:25.314Z,73404.81
2022-11-14T09:11:19.048Z,73404.81
2022-11-14T09:12:12.923Z,73410.81
2022-11-14T09:13:03.978Z,73396.84
2022-11-14T09:13:57.264Z,73412.81
2022-11-14T09:14:47.928Z,73404.81
2022-11-14T09:15:41.725Z,73404.81
2022-11-14T09:16:35.871Z,73414.81
2022-11-14T09:17:29.239Z,73412.81
2022-11-14T09:18:20.318Z,73416.78
2022-11-14T09:19:13.764Z,73406.81
2022-11-14T09:20:08.037Z,73414.81
2022-11-14T09:21:03.808Z,73416.78
2022-11-14T09:21:54.738Z,73418.78
2022-11-14T09:22:48.107Z,73412.81
2022-11-14T09:23:41.785Z,73412.81
2022-11-14T09:24:32.711Z,73400.81
2022-11-14T09:25:26.645Z,73412.81
2022-11-14T09:26:21.225Z,73402.81
2022-11-14T09:27:11.848Z,73402.81
2022-11-14T09:28:09.092Z,73400.81
2022-11-14T09:29:00.987Z,73400.81
2022-11-14T09:29:54.334Z,73404.81
2022-11-14T09:30:44.815Z,73404.81
2022-11-14T09:31:38.913Z,73404.81
2022-11-14T09:32:29.628Z,73404.81
2022-11-14T09:33:23.236Z,73404.81
2022-11-14T09:34:14.285Z,73402.81
2022-11-14T09:35:12.919Z,73412.81
2022-11-14T09:36:09.211Z,73408.81
2022-11-14T09:37:02.624Z,73404.81
2022-11-14T09:37:59.961Z,73404.81
2022-11-14T09:38:54.599Z,73402.81
2022-11-14T09:39:45.469Z,73404.81
2022-11-14T09:40:48.427Z,73404.81
2022-11-14T09:41:52.134Z,73412.81
2022-11-14T09:42:55.523Z,73408.81
2022-11-14T09:44:09.065Z,73408.81
2022-11-14T09:45:04.531Z,73400.81
2022-11-14T09:45:55.136Z,73412.81
2022-11-14T09:46:49.342Z,73400.81
2022-11-14T09:47:46.851Z,73404.81
2022-11-14T09:48:37.880Z,73400.81
2022-11-14T09:49:34.893Z,73400.81
2022-11-14T09:50:35.965Z,73412.81
2022-11-14T09:51:32.219Z,73406.81
2022-11-14T09:52:28.640Z,73410.81
2022-11-14T09:53:28.856Z,73412.81
2022-11-14T09:54:22.958Z,73410.81
2022-11-14T09:55:18.047Z,73416.78
2022-11-14T09:56:12.308Z,73408.81
2022-11-14T09:57:05.695Z,73400.81
2022-11-14T09:57:56.824Z,73408.81
2022-11-14T09:58:50.380Z,73404.81
2022-11-14T09:59:41.023Z,73404.81
2022-11-14T10:00:45.933Z,73404.81
2022-11-14T10:01:43.621Z,73402.81
2022-11-14T10:02:44.915Z,73404.81
2022-11-14T10:03:45.449Z,73404.81
2022-11-14T10:04:49.698Z,73404.81
2022-11-14T10:05:57.569Z,73406.81
2022-11-14T10:06:58.250Z,73400.81
2022-11-14T10:08:01.329Z,73406.81
2022-11-14T10:09:04.822Z,73406.81
2022-11-14T10:10:05.293Z,73402.81
2022-11-14T10:10:58.976Z,73412.81
2022-11-14T10:11:56.716Z,73410.81
2022-11-14T10:13:03.383Z,73404.81
2022-11-14T10:14:08.984Z,73412.81
2022-11-14T10:15:20.771Z,73408.81
2022-11-14T10:16:16.317Z,73402.81
2022-11-14T10:17:19.956Z,73406.81
2022-11-14T10:18:22.427Z,73396.84
2022-11-14T10:19:19.558Z,73402.81
2022-11-14T10:20:18.543Z,73396.84
2022-11-14T10:21:29.145Z,73404.81
2022-11-14T10:22:33.393Z,73400.81
2022-11-14T10:23:33.368Z,73398.81
2022-11-14T10:24:35.922Z,73400.81
2022-11-14T10:25:32.086Z,73400.81
2022-11-14T10:26:30.191Z,73404.81
2022-11-14T10:27:28.824Z,73398.81
2022-11-14T10:28:41.707Z,73402.81
2022-11-14T10:29:50.135Z,73400.81